Terminal Aerodrome Forecast
Issued by NWS Grand Rapids, MI

Home | Current Version | Previous Version | Text Only | Print | Product List | Glossary On
Versions: 1 2 3 4 5 6 7 8 9 10 11 12 13 14 15
761
FTUS43 KGRR 271740
TAFGRR
TAF
KGRR 271740Z 2718/2818 27015G25KT P6SM OVC040
     FM272200 26008KT P6SM -SHRA OVC030
     FM280200 23004KT P6SM SHRA OVC020
     FM280600 20003KT 5SM SHRA BR VCTS OVC007CB
     FM281400 09006KT P6SM -SHRA OVC020=

USA.gov is the U.S. government's official web portal to all federal, state and local government web resources and services.